Time;durP1;ratioP1;P1;durP2;ratioP2;P2;SDS_P1;SDS_P2;PMS_P1;PMS_P2;Temp;Humidity;BMP_temperature;BMP_pressure;BME280_temperature;BME280_humidity;BME280_pressure;Samples;Min_cycle;Max_cycle;Signal;HPM_P1;HPM_P2
2022/02/27 00:00:43;;;;;;;15.35;5.95;;;;;;;;;;5041564;28;20124;-82
2022/02/27 00:03:10;;;;;;;18.63;6.65;;;;;;;;;;5059543;28;20106;-82
2022/02/27 00:05:38;;;;;;;16.45;9.40;;;;;;;;;;5059951;28;20096;-82
2022/02/27 00:08:06;;;;;;;21.50;8.65;;;;;;;;;;5042593;28;20049;-81
2022/02/27 00:10:33;;;;;;;24.08;8.63;;;;;;;;;;5042635;28;20076;-81
2022/02/27 00:12:59;;;;;;;30.25;13.93;;;;;;;;;;5060624;28;20044;-81
2022/02/27 00:15:28;;;;;;;29.38;11.63;;;;;;;;;;5060996;28;20436;-81
2022/02/27 00:17:55;;;;;;;20.50;9.65;;;;;;;;;;5043352;28;20049;-81
2022/02/27 00:20:22;;;;;;;23.15;8.57;;;;;;;;;;5073671;28;20025;-81
2022/02/27 00:22:52;;;;;;;13.27;5.40;;;;;;;;;;5078233;28;20029;-81
2022/02/27 00:25:19;;;;;;;15.80;6.00;;;;;;;;;;5037905;28;20069;-79
2022/02/27 00:27:47;;;;;;;14.05;6.00;;;;;;;;;;5039363;28;20029;-79
2022/02/27 00:30:15;;;;;;;11.70;5.03;;;;;;;;;;5025028;28;20053;-81
2022/02/27 00:32:44;;;;;;;12.52;5.47;;;;;;;;;;5017282;28;20100;-81
2022/02/27 00:35:11;;;;;;;12.68;5.63;;;;;;;;;;5017862;28;20046;-81
2022/02/27 00:37:41;;;;;;;11.07;4.75;;;;;;;;;;5017634;28;20042;-81
2022/02/27 00:40:09;;;;;;;11.35;5.13;;;;;;;;;;5017185;28;20042;-81
2022/02/27 00:42:36;;;;;;;11.35;4.13;;;;;;;;;;5031432;28;20049;-82
2022/02/27 00:45:04;;;;;;;16.42;7.40;;;;;;;;;;5036585;28;20099;-81
2022/02/27 00:47:32;;;;;;;13.63;4.90;;;;;;;;;;5035244;28;20081;-81
2022/02/27 00:50:04;;;;;;;9.77;3.75;;;;;;;;;;5035177;28;20409;-82
2022/02/27 00:52:32;;;;;;;11.57;3.80;;;;;;;;;;5034883;28;20045;-82
2022/02/27 00:54:59;;;;;;;11.73;4.03;;;;;;;;;;5038490;28;20042;-82
2022/02/27 00:57:29;;;;;;;11.18;4.43;;;;;;;;;;5015233;28;20046;-82
2022/02/27 00:59:57;;;;;;;19.90;6.78;;;;;;;;;;5016744;28;20053;-82
2022/02/27 01:02:25;;;;;;;17.42;8.57;;;;;;;;;;5014869;28;20042;-81
2022/02/27 01:04:52;;;;;;;10.07;4.70;;;;;;;;;;5016068;28;20050;-80
2022/02/27 01:07:20;;;;;;;14.85;4.65;;;;;;;;;;5016430;28;20374;-81
2022/02/27 01:09:47;;;;;;;13.05;5.13;;;;;;;;;;5016741;28;20046;-81
2022/02/27 01:12:14;;;;;;;12.85;4.63;;;;;;;;;;5014328;28;20479;-81
2022/02/27 01:14:41;;;;;;;15.82;5.15;;;;;;;;;;5015353;28;20077;-81
2022/02/27 01:17:09;;;;;;;11.30;5.35;;;;;;;;;;5014973;28;20052;-81
2022/02/27 01:19:36;;;;;;;16.55;5.43;;;;;;;;;;5015003;28;20107;-81
2022/02/27 01:22:04;;;;;;;10.45;4.07;;;;;;;;;;5016832;28;20049;-81
2022/02/27 01:24:34;;;;;;;8.45;3.90;;;;;;;;;;5039815;28;20118;-81
2022/02/27 01:27:01;;;;;;;12.60;4.53;;;;;;;;;;5042643;28;20060;-81
2022/02/27 01:29:28;;;;;;;9.95;3.97;;;;;;;;;;5029020;28;20103;-82
2022/02/27 01:31:55;;;;;;;13.43;4.28;;;;;;;;;;5006801;28;20509;-81
2022/02/27 01:34:22;;;;;;;8.25;4.05;;;;;;;;;;5036793;28;20060;-80
2022/02/27 01:36:49;;;;;;;13.45;4.63;;;;;;;;;;5055738;28;20461;-81
2022/02/27 01:39:16;;;;;;;14.18;4.93;;;;;;;;;;5038625;28;20130;-81
2022/02/27 01:41:46;;;;;;;11.27;3.97;;;;;;;;;;5044090;28;20460;-82
2022/02/27 01:44:13;;;;;;;8.27;4.57;;;;;;;;;;5045659;28;20150;-82
2022/02/27 01:46:58;;;;;;;10.18;4.47;;;;;;;;;;5048150;28;20068;-82
2022/02/27 01:49:25;;;;;;;13.50;4.00;;;;;;;;;;5039814;28;20071;-83
2022/02/27 01:51:53;;;;;;;11.75;4.57;;;;;;;;;;5051096;28;20093;-81
2022/02/27 01:54:20;;;;;;;10.68;3.72;;;;;;;;;;5047647;28;20038;-81
2022/02/27 01:56:49;;;;;;;11.63;3.50;;;;;;;;;;5035702;28;20555;-80
2022/02/27 01:59:17;;;;;;;10.52;3.47;;;;;;;;;;5052452;28;20080;-81
2022/02/27 02:01:46;;;;;;;12.35;3.70;;;;;;;;;;5055188;28;20072;-81
2022/02/27 02:04:13;;;;;;;15.57;4.57;;;;;;;;;;5039046;28;20095;-81
2022/02/27 02:06:40;;;;;;;18.38;3.95;;;;;;;;;;5058058;28;20539;-81
2022/02/27 02:09:08;;;;;;;8.60;3.40;;;;;;;;;;5056125;28;20444;-82
2022/02/27 02:11:36;;;;;;;11.23;4.32;;;;;;;;;;5040996;28;20116;-82
2022/02/27 02:14:06;;;;;;;13.30;4.10;;;;;;;;;;5033506;28;20111;-81
2022/02/27 02:16:40;;;;;;;12.38;3.10;;;;;;;;;;5037844;28;20080;-81
2022/02/27 02:19:08;;;;;;;7.65;3.05;;;;;;;;;;5038803;28;20413;-81
2022/02/27 02:21:44;;;;;;;9.68;3.10;;;;;;;;;;5021220;28;20073;-81
2022/02/27 02:24:11;;;;;;;7.85;3.55;;;;;;;;;;5036192;28;20050;-81
2022/02/27 02:26:39;;;;;;;14.38;3.67;;;;;;;;;;5038545;28;20073;-81
2022/02/27 02:29:08;;;;;;;8.85;4.93;;;;;;;;;;5038539;28;20045;-81
2022/02/27 02:31:35;;;;;;;8.05;3.60;;;;;;;;;;5038112;28;20458;-81
2022/02/27 02:34:07;;;;;;;16.00;4.15;;;;;;;;;;5020140;28;20045;-81
2022/02/27 02:36:34;;;;;;;5.40;2.92;;;;;;;;;;5038677;28;20425;-80
2022/02/27 02:39:08;;;;;;;14.88;3.45;;;;;;;;;;5037745;28;20049;-81
2022/02/27 02:41:36;;;;;;;9.80;3.70;;;;;;;;;;5038829;28;20425;-81
2022/02/27 02:44:04;;;;;;;12.63;4.15;;;;;;;;;;5038319;28;20444;-81
2022/02/27 02:46:31;;;;;;;7.60;4.15;;;;;;;;;;5037910;28;20049;-81
2022/02/27 02:48:58;;;;;;;13.65;4.20;;;;;;;;;;5037584;28;20456;-81
2022/02/27 02:51:27;;;;;;;5.90;3.47;;;;;;;;;;5038490;28;20065;-81
2022/02/27 02:53:56;;;;;;;15.65;4.00;;;;;;;;;;5038081;28;20091;-81
2022/02/27 02:56:24;;;;;;;8.15;3.38;;;;;;;;;;5037467;28;20076;-81
2022/02/27 02:58:52;;;;;;;17.67;5.95;;;;;;;;;;5038010;28;20068;-81
2022/02/27 03:01:22;;;;;;;12.98;3.53;;;;;;;;;;5038043;28;20068;-80
2022/02/27 03:03:50;;;;;;;11.57;4.65;;;;;;;;;;5036273;28;20037;-81
2022/02/27 03:06:17;;;;;;;10.88;3.67;;;;;;;;;;5020487;28;20091;-81
2022/02/27 03:08:49;;;;;;;11.57;4.57;;;;;;;;;;5038098;28;20107;-81
2022/02/27 03:11:16;;;;;;;8.60;4.38;;;;;;;;;;5037143;28;20085;-81
2022/02/27 03:13:45;;;;;;;8.88;3.90;;;;;;;;;;5036656;28;20081;-81
2022/02/27 03:16:13;;;;;;;7.82;3.45;;;;;;;;;;5037316;28;20072;-81
2022/02/27 03:18:40;;;;;;;8.77;3.60;;;;;;;;;;5037926;28;20068;-81
2022/02/27 03:21:08;;;;;;;9.20;3.33;;;;;;;;;;5037919;28;20071;-81
2022/02/27 03:23:35;;;;;;;9.15;4.22;;;;;;;;;;5018473;28;20052;-81
2022/02/27 03:26:03;;;;;;;10.23;3.22;;;;;;;;;;5038000;28;20056;-81
2022/02/27 03:28:30;;;;;;;6.85;3.70;;;;;;;;;;5037757;28;20052;-81
2022/02/27 03:30:58;;;;;;;7.68;3.67;;;;;;;;;;5037849;28;20136;-81
2022/02/27 03:33:25;;;;;;;8.43;3.50;;;;;;;;;;5019745;28;20041;-80
2022/02/27 03:36:01;;;;;;;9.05;3.63;;;;;;;;;;5037182;28;20095;-80
2022/02/27 03:38:28;;;;;;;12.20;3.85;;;;;;;;;;5037106;28;20049;-81
2022/02/27 03:40:55;;;;;;;11.93;3.38;;;;;;;;;;5038048;28;20374;-81
2022/02/27 03:43:23;;;;;;;13.20;3.83;;;;;;;;;;5037773;28;20061;-81
2022/02/27 03:45:51;;;;;;;7.15;3.47;;;;;;;;;;5019308;28;20073;-81
2022/02/27 03:48:22;;;;;;;13.20;4.07;;;;;;;;;;5037100;28;20073;-81
2022/02/27 03:50:50;;;;;;;11.80;4.22;;;;;;;;;;5038013;28;20084;-81
2022/02/27 03:53:18;;;;;;;10.68;4.20;;;;;;;;;;5038380;28;20425;-81
2022/02/27 03:55:45;;;;;;;12.90;4.57;;;;;;;;;;5036722;28;20474;-82
2022/02/27 03:58:12;;;;;;;10.52;4.32;;;;;;;;;;5037674;28;20045;-80
2022/02/27 04:00:39;;;;;;;9.52;3.92;;;;;;;;;;5037018;28;20073;-81
2022/02/27 04:03:08;;;;;;;12.23;3.88;;;;;;;;;;5037635;28;20069;-81
2022/02/27 04:05:37;;;;;;;10.38;3.85;;;;;;;;;;5019534;28;20057;-81
2022/02/27 04:08:04;;;;;;;8.35;4.30;;;;;;;;;;5037813;28;20077;-81
2022/02/27 04:10:31;;;;;;;10.20;4.07;;;;;;;;;;5037970;28;20077;-81
2022/02/27 04:12:59;;;;;;;14.25;4.88;;;;;;;;;;5036867;28;20509;-81
2022/02/27 04:15:26;;;;;;;10.23;4.70;;;;;;;;;;5038185;28;20046;-81
2022/02/27 04:17:53;;;;;;;15.55;4.13;;;;;;;;;;5037855;28;20077;-81
2022/02/27 04:20:19;;;;;;;11.52;3.40;;;;;;;;;;5037430;28;20458;-81
2022/02/27 04:22:48;;;;;;;11.50;3.85;;;;;;;;;;5037969;28;20124;-81
2022/02/27 04:25:22;;;;;;;10.27;3.97;;;;;;;;;;5034924;28;20084;-81
2022/02/27 04:27:53;;;;;;;11.18;3.83;;;;;;;;;;5037762;28;20045;-81
2022/02/27 04:30:20;;;;;;;11.35;3.85;;;;;;;;;;5037553;28;20045;-81
2022/02/27 04:32:47;;;;;;;11.65;4.03;;;;;;;;;;5038088;28;20049;-81
2022/02/27 04:35:14;;;;;;;15.65;6.28;;;;;;;;;;5038209;28;20049;-81
2022/02/27 04:37:42;;;;;;;7.82;3.15;;;;;;;;;;5037835;28;20041;-81
2022/02/27 04:40:13;;;;;;;8.38;4.10;;;;;;;;;;5038153;28;20073;-81
2022/02/27 04:42:41;;;;;;;11.15;4.80;;;;;;;;;;5038675;28;20088;-81
2022/02/27 04:45:09;;;;;;;10.40;3.88;;;;;;;;;;5020552;28;20095;-81
2022/02/27 04:47:36;;;;;;;9.32;4.00;;;;;;;;;;5037919;28;20080;-81
2022/02/27 04:50:04;;;;;;;11.90;3.95;;;;;;;;;;5039533;28;20072;-81
2022/02/27 04:52:30;;;;;;;13.68;5.03;;;;;;;;;;5039154;28;20049;-81
2022/02/27 04:54:57;;;;;;;9.93;3.78;;;;;;;;;;5020823;28;20486;-81
2022/02/27 04:57:26;;;;;;;10.70;3.95;;;;;;;;;;5021293;28;20124;-81
2022/02/27 04:59:53;;;;;;;11.40;4.80;;;;;;;;;;5038380;28;20128;-81
2022/02/27 05:02:20;;;;;;;8.38;4.15;;;;;;;;;;5021361;28;20144;-81
2022/02/27 05:04:48;;;;;;;9.90;4.15;;;;;;;;;;5039907;28;20068;-81
2022/02/27 05:07:15;;;;;;;15.45;4.53;;;;;;;;;;5059727;28;20052;-81
2022/02/27 05:09:41;;;;;;;16.23;5.70;;;;;;;;;;5059503;28;20041;-81
2022/02/27 05:12:08;;;;;;;11.75;4.25;;;;;;;;;;5063144;28;20072;-81
2022/02/27 05:14:37;;;;;;;9.65;3.67;;;;;;;;;;5040573;28;20053;-82
2022/02/27 05:17:04;;;;;;;11.65;4.50;;;;;;;;;;5056404;28;20037;-81
2022/02/27 05:19:31;;;;;;;13.70;4.22;;;;;;;;;;5066103;28;20036;-82
2022/02/27 05:21:57;;;;;;;10.88;4.40;;;;;;;;;;5061256;28;20035;-80
2022/02/27 05:24:24;;;;;;;10.48;5.68;;;;;;;;;;5075826;28;20044;-88
2022/02/27 05:26:51;;;;;;;11.25;4.65;;;;;;;;;;5070551;28;20049;-84
2022/02/27 05:29:18;;;;;;;8.88;3.78;;;;;;;;;;5070795;28;20045;-86
2022/02/27 05:31:47;;;;;;;10.20;4.47;;;;;;;;;;5054310;28;20064;-81
2022/02/27 05:34:14;;;;;;;11.13;4.13;;;;;;;;;;5040274;28;20077;-82
2022/02/27 05:36:41;;;;;;;9.82;4.45;;;;;;;;;;5051096;28;20037;-81
2022/02/27 05:39:08;;;;;;;12.90;4.40;;;;;;;;;;5060640;28;20410;-81
2022/02/27 05:41:36;;;;;;;14.27;4.28;;;;;;;;;;5060801;28;20118;-81
2022/02/27 05:44:03;;;;;;;9.32;3.90;;;;;;;;;;5060743;28;20048;-81
2022/02/27 05:46:30;;;;;;;8.13;4.25;;;;;;;;;;5052397;28;20041;-81
2022/02/27 05:48:59;;;;;;;11.38;5.00;;;;;;;;;;5039187;28;20535;-81
2022/02/27 05:51:26;;;;;;;11.88;4.97;;;;;;;;;;5039670;28;20124;-81
2022/02/27 05:53:53;;;;;;;11.68;4.60;;;;;;;;;;5038560;28;20482;-81
2022/02/27 05:56:21;;;;;;;10.68;5.18;;;;;;;;;;5051475;28;20083;-81
2022/02/27 05:58:49;;;;;;;9.77;4.28;;;;;;;;;;5038833;28;20134;-81
2022/02/27 06:01:16;;;;;;;9.95;4.40;;;;;;;;;;5039754;28;20136;-81
2022/02/27 06:03:46;;;;;;;12.38;5.57;;;;;;;;;;5038877;28;20530;-81
2022/02/27 06:06:17;;;;;;;10.77;4.65;;;;;;;;;;5029188;28;20059;-81
2022/02/27 06:08:43;;;;;;;15.10;5.25;;;;;;;;;;5040756;28;20049;-81
2022/02/27 06:11:10;;;;;;;11.63;4.72;;;;;;;;;;5040618;28;20052;-81
2022/02/27 06:13:37;;;;;;;12.32;4.53;;;;;;;;;;5056526;28;20080;-81
2022/02/27 06:16:04;;;;;;;8.95;4.30;;;;;;;;;;5058543;28;20045;-81
2022/02/27 06:18:30;;;;;;;12.20;6.70;;;;;;;;;;5058474;28;20124;-81
2022/02/27 06:20:59;;;;;;;11.50;5.10;;;;;;;;;;5057813;28;20080;-81
2022/02/27 06:23:29;;;;;;;12.82;5.30;;;;;;;;;;5057145;28;20131;-82
2022/02/27 06:25:57;;;;;;;11.07;4.97;;;;;;;;;;5058808;28;20068;-81
2022/02/27 06:28:24;;;;;;;12.25;5.10;;;;;;;;;;5057459;28;20073;-81
2022/02/27 06:30:53;;;;;;;9.77;5.20;;;;;;;;;;5046040;28;20083;-81
2022/02/27 06:33:20;;;;;;;15.23;7.50;;;;;;;;;;5064252;28;20385;-81
2022/02/27 06:35:47;;;;;;;13.65;5.25;;;;;;;;;;5063552;28;20204;-81
2022/02/27 06:38:14;;;;;;;12.15;6.50;;;;;;;;;;5045327;28;20037;-81
2022/02/27 06:40:43;;;;;;;10.43;4.40;;;;;;;;;;5045214;28;20095;-81
2022/02/27 06:43:09;;;;;;;9.93;4.93;;;;;;;;;;5062303;28;20099;-81
2022/02/27 06:45:37;;;;;;;13.32;6.05;;;;;;;;;;5061468;28;20081;-81
2022/02/27 06:48:03;;;;;;;11.60;5.20;;;;;;;;;;5059686;28;20132;-80
2022/02/27 06:50:30;;;;;;;13.57;5.65;;;;;;;;;;5058791;28;20091;-81
2022/02/27 06:52:57;;;;;;;9.63;5.38;;;;;;;;;;5029647;28;20052;-80
2022/02/27 06:55:23;;;;;;;14.32;4.80;;;;;;;;;;5049656;28;20504;-81
2022/02/27 06:57:51;;;;;;;11.23;5.28;;;;;;;;;;5045258;28;20068;-81
2022/02/27 07:00:19;;;;;;;13.95;5.40;;;;;;;;;;5058196;28;20072;-81
2022/02/27 07:02:47;;;;;;;13.80;5.05;;;;;;;;;;5060661;28;20084;-80
2022/02/27 07:05:14;;;;;;;11.27;5.13;;;;;;;;;;5060172;28;20040;-80
2022/02/27 07:07:40;;;;;;;14.65;5.47;;;;;;;;;;5059583;28;20079;-80
2022/02/27 07:10:08;;;;;;;9.65;5.25;;;;;;;;;;5047780;28;20072;-80
2022/02/27 07:12:37;;;;;;;14.27;5.68;;;;;;;;;;5045320;28;20437;-80
2022/02/27 07:15:13;;;;;;;12.15;5.38;;;;;;;;;;5054482;28;20108;-82
2022/02/27 07:17:39;;;;;;;11.15;4.57;;;;;;;;;;5050706;28;20073;-82
2022/02/27 07:20:07;;;;;;;11.73;5.32;;;;;;;;;;5034575;28;20437;-82
2022/02/27 07:22:36;;;;;;;14.40;4.72;;;;;;;;;;5055732;28;20076;-81
2022/02/27 07:25:04;;;;;;;12.10;4.80;;;;;;;;;;5047931;28;20075;-80
2022/02/27 07:27:31;;;;;;;11.20;5.40;;;;;;;;;;5059508;28;20037;-81
2022/02/27 07:29:58;;;;;;;10.82;4.80;;;;;;;;;;5058083;28;20076;-80
2022/02/27 07:32:26;;;;;;;10.63;4.65;;;;;;;;;;5059129;28;20124;-80
2022/02/27 07:34:52;;;;;;;12.48;4.75;;;;;;;;;;5058816;28;20362;-80
2022/02/27 07:37:19;;;;;;;13.02;4.95;;;;;;;;;;5057871;28;20077;-80
2022/02/27 07:39:46;;;;;;;10.40;4.88;;;;;;;;;;5058731;28;20041;-81
2022/02/27 07:42:14;;;;;;;13.27;5.65;;;;;;;;;;5057441;28;20049;-81
2022/02/27 07:44:41;;;;;;;12.75;5.32;;;;;;;;;;5046575;28;20099;-81
2022/02/27 07:47:07;;;;;;;10.77;5.22;;;;;;;;;;5052919;28;20275;-80
2022/02/27 07:49:35;;;;;;;16.13;6.68;;;;;;;;;;5055431;28;20087;-80
2022/02/27 07:52:02;;;;;;;8.40;4.60;;;;;;;;;;5057580;28;20128;-79
2022/02/27 07:54:29;;;;;;;10.15;4.68;;;;;;;;;;5039217;28;20052;-80
2022/02/27 07:56:56;;;;;;;10.63;4.75;;;;;;;;;;5058530;28;20041;-80
2022/02/27 07:59:22;;;;;;;14.43;5.40;;;;;;;;;;5058125;28;20079;-80
2022/02/27 08:01:49;;;;;;;10.73;4.85;;;;;;;;;;5056919;28;20076;-79
2022/02/27 08:04:16;;;;;;;10.70;5.32;;;;;;;;;;5056382;28;20505;-78
2022/02/27 08:06:44;;;;;;;9.45;5.07;;;;;;;;;;5057491;28;20118;-81
2022/02/27 08:09:12;;;;;;;11.23;5.07;;;;;;;;;;5056366;28;20071;-80
2022/02/27 08:11:38;;;;;;;12.02;4.97;;;;;;;;;;5057354;28;20113;-79
2022/02/27 08:14:06;;;;;;;11.15;5.00;;;;;;;;;;5057031;28;20044;-82
2022/02/27 08:16:33;;;;;;;14.13;5.25;;;;;;;;;;5051120;28;20100;-82
2022/02/27 08:19:00;;;;;;;10.65;5.28;;;;;;;;;;5031673;28;20098;-82
2022/02/27 08:21:28;;;;;;;13.25;5.82;;;;;;;;;;5056977;28;20402;-82
2022/02/27 08:23:58;;;;;;;10.07;4.75;;;;;;;;;;5055801;28;20040;-83
2022/02/27 08:26:30;;;;;;;11.10;4.97;;;;;;;;;;5057783;28;20056;-83
2022/02/27 08:28:59;;;;;;;12.70;4.95;;;;;;;;;;5059201;28;20044;-84
2022/02/27 08:31:26;;;;;;;11.55;5.47;;;;;;;;;;5059479;28;20045;-81
2022/02/27 08:33:52;;;;;;;15.68;6.57;;;;;;;;;;5024949;28;20065;-81
2022/02/27 08:36:20;;;;;;;11.82;5.60;;;;;;;;;;5018857;28;20077;-81
2022/02/27 08:38:49;;;;;;;11.00;5.13;;;;;;;;;;5007506;28;20049;-85
2022/02/27 08:41:26;;;;;;;11.18;5.05;;;;;;;;;;5001378;28;20037;-86
2022/02/27 08:43:53;;;;;;;12.82;5.82;;;;;;;;;;5037487;28;20052;-81
2022/02/27 08:46:20;;;;;;;10.13;5.20;;;;;;;;;;4972692;28;20058;-81
2022/02/27 08:49:01;;;;;;;10.35;5.22;;;;;;;;;;4985053;28;20610;-83
2022/02/27 08:51:39;;;;;;;11.40;4.93;;;;;;;;;;5000165;28;20510;-80
2022/02/27 08:56:55;;;;;;;9.57;4.78;;;;;;;;;;4979155;28;20063;-78
2022/02/27 08:59:23;;;;;;;9.60;4.85;;;;;;;;;;4959660;28;20556;-81
2022/02/27 09:01:51;;;;;;;10.48;4.63;;;;;;;;;;4957890;28;20058;-81
2022/02/27 09:04:19;;;;;;;11.38;4.75;;;;;;;;;;4976912;28;20064;-78
2022/02/27 09:06:46;;;;;;;10.00;4.47;;;;;;;;;;4977773;28;20099;-81
2022/02/27 09:09:23;;;;;;;11.98;4.60;;;;;;;;;;4973731;28;20141;-79
2022/02/27 09:14:34;;;;;;;9.40;4.28;;;;;;;;;;4965701;28;20321;-79
2022/02/27 09:17:02;;;;;;;10.50;4.22;;;;;;;;;;4966961;28;20118;-80
2022/02/27 09:19:28;;;;;;;9.93;4.55;;;;;;;;;;5015569;28;20042;-80
2022/02/27 09:21:55;;;;;;;8.27;4.00;;;;;;;;;;5018777;28;20525;-80
2022/02/27 09:24:22;;;;;;;9.82;4.15;;;;;;;;;;5027341;28;20040;-80
2022/02/27 09:26:48;;;;;;;10.10;4.28;;;;;;;;;;4998312;28;20080;-79
2022/02/27 09:29:16;;;;;;;7.93;3.58;;;;;;;;;;5040405;28;20049;-79
2022/02/27 09:31:43;;;;;;;9.68;4.82;;;;;;;;;;5035270;28;20073;-79
2022/02/27 09:34:10;;;;;;;7.80;3.60;;;;;;;;;;5040497;28;20044;-81
2022/02/27 09:36:38;;;;;;;11.85;3.92;;;;;;;;;;5029951;28;20072;-80
2022/02/27 09:39:05;;;;;;;6.93;3.58;;;;;;;;;;5033789;28;20037;-80
2022/02/27 09:41:45;;;;;;;7.18;3.60;;;;;;;;;;4993152;28;20058;-81
2022/02/27 09:44:14;;;;;;;7.75;3.50;;;;;;;;;;4992951;28;20051;-80
2022/02/27 09:46:48;;;;;;;9.88;3.30;;;;;;;;;;4995924;28;20125;-81
2022/02/27 09:49:16;;;;;;;7.68;3.50;;;;;;;;;;5003030;28;20298;-80
2022/02/27 09:51:42;;;;;;;5.97;3.40;;;;;;;;;;5027180;28;20034;-80
2022/02/27 09:54:13;;;;;;;7.43;3.35;;;;;;;;;;5035805;28;20050;-80
2022/02/27 09:56:40;;;;;;;11.80;4.75;;;;;;;;;;5040205;28;20073;-80
2022/02/27 09:59:07;;;;;;;8.60;2.67;;;;;;;;;;5053393;28;20048;-82
2022/02/27 10:01:34;;;;;;;6.30;3.05;;;;;;;;;;5005859;28;20047;-82
2022/02/27 10:04:21;;;;;;;7.97;3.70;;;;;;;;;;5003803;28;20056;-82
2022/02/27 10:06:49;;;;;;;9.18;3.35;;;;;;;;;;5051210;28;20103;-84
2022/02/27 10:09:23;;;;;;;5.47;3.13;;;;;;;;;;5084832;28;20043;-82
2022/02/27 10:11:52;;;;;;;5.97;3.30;;;;;;;;;;5060763;28;20045;-82
2022/02/27 10:14:26;;;;;;;6.22;2.90;;;;;;;;;;5046372;28;20050;-82
2022/02/27 10:17:03;;;;;;;7.07;2.88;;;;;;;;;;5052263;28;20052;-82
2022/02/27 10:19:36;;;;;;;6.30;2.45;;;;;;;;;;5057033;28;20093;-82
2022/02/27 10:22:04;;;;;;;9.52;3.95;;;;;;;;;;5072681;28;20068;-81
2022/02/27 10:24:35;;;;;;;4.68;2.40;;;;;;;;;;5054573;28;20049;-82
2022/02/27 10:27:10;;;;;;;5.00;2.67;;;;;;;;;;5048777;28;20049;-82
2022/02/27 10:29:42;;;;;;;5.63;3.08;;;;;;;;;;5043316;28;20045;-83
2022/02/27 10:32:09;;;;;;;5.55;3.15;;;;;;;;;;5020853;28;20084;-82
2022/02/27 10:34:40;;;;;;;4.95;2.58;;;;;;;;;;5042531;28;20050;-82
2022/02/27 10:37:09;;;;;;;7.68;3.35;;;;;;;;;;5041092;28;20080;-83
2022/02/27 10:39:41;;;;;;;5.75;3.55;;;;;;;;;;5040470;28;20049;-83
2022/02/27 10:42:10;;;;;;;5.63;3.05;;;;;;;;;;5037662;28;20041;-83
2022/02/27 10:44:38;;;;;;;6.38;2.38;;;;;;;;;;5042853;28;20049;-82
2022/02/27 10:47:10;;;;;;;5.65;2.28;;;;;;;;;;5049068;28;20041;-82
2022/02/27 10:49:40;;;;;;;6.68;2.53;;;;;;;;;;5042569;28;20048;-83
2022/02/27 10:52:15;;;;;;;5.03;2.85;;;;;;;;;;5045819;28;20079;-82
2022/02/27 10:54:43;;;;;;;4.63;2.33;;;;;;;;;;5046797;28;20041;-83
2022/02/27 10:57:29;;;;;;;8.05;2.85;;;;;;;;;;5047217;28;20045;-83
2022/02/27 10:59:58;;;;;;;3.75;2.13;;;;;;;;;;5034487;28;20037;-85
2022/02/27 11:02:28;;;;;;;5.93;2.47;;;;;;;;;;5032740;28;20075;-86
2022/02/27 11:04:59;;;;;;;7.35;2.97;;;;;;;;;;5034958;28;20140;-85
2022/02/27 11:07:27;;;;;;;4.85;2.38;;;;;;;;;;5035990;28;20050;-83
2022/02/27 11:09:58;;;;;;;7.30;2.97;;;;;;;;;;5016168;28;20041;-85
2022/02/27 11:12:27;;;;;;;7.32;3.20;;;;;;;;;;5036259;28;20092;-83
2022/02/27 11:14:57;;;;;;;11.43;6.43;;;;;;;;;;5038079;28;20066;-83
2022/02/27 11:17:28;;;;;;;6.65;3.72;;;;;;;;;;5033857;28;20049;-84
2022/02/27 11:20:04;;;;;;;9.07;4.97;;;;;;;;;;5033382;28;20455;-83
2022/02/27 11:22:31;;;;;;;11.40;5.60;;;;;;;;;;5031674;28;20117;-83
2022/02/27 11:27:49;;;;;;;6.85;2.95;;;;;;;;;;5030786;28;20108;-86
2022/02/27 11:30:27;;;;;;;7.93;3.30;;;;;;;;;;5037003;28;21153;-85
2022/02/27 11:32:57;;;;;;;7.28;4.13;;;;;;;;;;5028367;28;20636;-84
2022/02/27 11:35:52;;;;;;;6.10;3.53;;;;;;;;;;5028914;28;20046;-84
2022/02/27 11:39:01;;;;;;;6.95;3.05;;;;;;;;;;5027245;28;20041;-85
2022/02/27 11:41:49;;;;;;;6.38;3.33;;;;;;;;;;4983063;28;20058;-86
2022/02/27 11:44:18;;;;;;;6.30;3.05;;;;;;;;;;4995663;28;20058;-84
2022/02/27 11:46:47;;;;;;;6.47;3.50;;;;;;;;;;4973092;28;20576;-83
2022/02/27 11:49:21;;;;;;;6.65;3.17;;;;;;;;;;4959058;28;20054;-83
2022/02/27 11:52:00;;;;;;;9.00;3.80;;;;;;;;;;4980664;28;20054;-82
2022/02/27 11:54:29;;;;;;;6.68;2.88;;;;;;;;;;4976540;28;20090;-83
2022/02/27 11:57:07;;;;;;;7.78;3.40;;;;;;;;;;4986574;28;20039;-83
2022/02/27 11:59:54;;;;;;;4.90;3.10;;;;;;;;;;4992630;28;20125;-84
2022/02/27 12:02:27;;;;;;;7.35;3.25;;;;;;;;;;4976947;28;20047;-83
2022/02/27 12:04:56;;;;;;;8.20;3.67;;;;;;;;;;4979285;28;20061;-82
2022/02/27 12:07:27;;;;;;;5.80;3.25;;;;;;;;;;4996655;28;20093;-82
2022/02/27 12:10:00;;;;;;;5.50;3.40;;;;;;;;;;4976496;28;20071;-82
2022/02/27 12:12:36;;;;;;;4.72;3.00;;;;;;;;;;4978088;28;20094;-83
2022/02/27 12:15:20;;;;;;;4.78;3.08;;;;;;;;;;4992908;28;20042;-83
2022/02/27 12:17:52;;;;;;;6.55;3.33;;;;;;;;;;5015367;28;20485;-82
2022/02/27 12:20:44;;;;;;;6.00;3.25;;;;;;;;;;5024117;28;20037;-82
2022/02/27 12:23:14;;;;;;;6.45;3.17;;;;;;;;;;5028261;28;20120;-82
2022/02/27 12:25:47;;;;;;;5.28;2.80;;;;;;;;;;5029289;28;20069;-82
2022/02/27 12:28:57;;;;;;;5.40;3.45;;;;;;;;;;5025179;28;20585;-82
2022/02/27 12:31:27;;;;;;;6.57;3.10;;;;;;;;;;5014975;28;20456;-83
2022/02/27 12:33:54;;;;;;;7.65;3.75;;;;;;;;;;5028873;28;20057;-82
2022/02/27 12:36:22;;;;;;;8.38;3.65;;;;;;;;;;5033687;28;20085;-84
2022/02/27 12:38:56;;;;;;;6.25;3.80;;;;;;;;;;5032024;28;20146;-82
2022/02/27 12:41:23;;;;;;;6.97;3.70;;;;;;;;;;5033090;28;20118;-82
2022/02/27 12:43:50;;;;;;;7.78;3.40;;;;;;;;;;5041708;28;20560;-83
2022/02/27 12:46:18;;;;;;;7.25;3.83;;;;;;;;;;5037823;28;20077;-83
2022/02/27 12:51:32;;;;;;;7.82;4.60;;;;;;;;;;5040339;28;20059;-83
2022/02/27 12:54:06;;;;;;;6.18;3.65;;;;;;;;;;5038584;28;20430;-83
2022/02/27 12:56:33;;;;;;;10.23;4.15;;;;;;;;;;5038225;28;20104;-83
2022/02/27 12:59:01;;;;;;;8.57;3.80;;;;;;;;;;5020983;28;20080;-83
2022/02/27 13:01:28;;;;;;;5.30;3.47;;;;;;;;;;5021073;28;20072;-81
2022/02/27 13:04:04;;;;;;;8.60;4.22;;;;;;;;;;5020109;28;20080;-81
2022/02/27 13:06:34;;;;;;;;;;;;;;;;;;5039568;28;20406;-82
2022/02/27 13:09:04;;;;;;;7.43;4.25;;;;;;;;;;5038063;28;20365;-81
2022/02/27 13:11:42;;;;;;;7.35;4.13;;;;;;;;;;5038798;28;20052;-82
2022/02/27 13:14:09;;;;;;;10.02;4.78;;;;;;;;;;5039230;28;20041;-82
2022/02/27 13:16:37;;;;;;;8.25;4.43;;;;;;;;;;5039549;28;20072;-82
2022/02/27 13:19:03;;;;;;;6.85;4.03;;;;;;;;;;5038292;28;20048;-81
2022/02/27 13:21:33;;;;;;;6.68;4.32;;;;;;;;;;5020274;28;20482;-81
2022/02/27 13:24:03;;;;;;;8.63;5.00;;;;;;;;;;5039993;28;20482;-82
2022/02/27 13:26:32;;;;;;;10.73;5.10;;;;;;;;;;5061107;28;20045;-82
2022/02/27 13:29:00;;;;;;;7.63;4.18;;;;;;;;;;5062915;28;20044;-80
2022/02/27 13:31:28;;;;;;;8.95;4.50;;;;;;;;;;5062118;28;20087;-81
2022/02/27 13:33:55;;;;;;;8.02;4.88;;;;;;;;;;5061649;28;20393;-81
2022/02/27 13:36:22;;;;;;;7.32;5.18;;;;;;;;;;5061844;28;20500;-81
2022/02/27 13:38:52;;;;;;;8.93;4.60;;;;;;;;;;5061939;28;20041;-82
2022/02/27 13:41:30;;;;;;;7.18;4.68;;;;;;;;;;5061014;28;20037;-81
2022/02/27 13:43:57;;;;;;;12.73;5.63;;;;;;;;;;5059524;28;20059;-81
2022/02/27 13:46:24;;;;;;;7.70;4.88;;;;;;;;;;5060499;28;20041;-81
2022/02/27 13:48:51;;;;;;;7.28;4.70;;;;;;;;;;5048655;28;20073;-83
2022/02/27 13:51:27;;;;;;;6.53;4.10;;;;;;;;;;5048213;28;20080;-81
2022/02/27 13:54:15;;;;;;;8.45;4.75;;;;;;;;;;5051439;28;20058;-81
2022/02/27 13:56:59;;;;;;;9.93;4.53;;;;;;;;;;5055082;28;20187;-81
2022/02/27 13:59:25;;;;;;;9.10;4.72;;;;;;;;;;5056826;28;20063;-81
2022/02/27 14:01:59;;;;;;;8.75;5.78;;;;;;;;;;5055038;28;20072;-82
2022/02/27 14:04:26;;;;;;;9.60;5.28;;;;;;;;;;5035816;28;20045;-81
2022/02/27 14:06:52;;;;;;;10.50;5.80;;;;;;;;;;5031464;28;20478;-82
2022/02/27 14:09:18;;;;;;;11.23;5.63;;;;;;;;;;5054699;28;20084;-82
2022/02/27 14:11:46;;;;;;;8.15;4.90;;;;;;;;;;5057137;28;20103;-81
2022/02/27 14:14:15;;;;;;;8.02;4.60;;;;;;;;;;5059886;28;20396;-82
2022/02/27 14:16:42;;;;;;;8.60;5.30;;;;;;;;;;5048216;28;20082;-83
2022/02/27 14:19:10;;;;;;;9.60;5.63;;;;;;;;;;5035806;28;20422;-81
2022/02/27 14:21:40;;;;;;;11.35;6.05;;;;;;;;;;5049141;28;20544;-81
2022/02/27 14:24:08;;;;;;;9.05;5.45;;;;;;;;;;5051932;28;20546;-82
2022/02/27 14:26:36;;;;;;;8.98;4.70;;;;;;;;;;5055839;28;20067;-80
2022/02/27 14:29:06;;;;;;;8.80;4.93;;;;;;;;;;5048974;28;20083;-80
2022/02/27 14:31:35;;;;;;;8.30;4.88;;;;;;;;;;5044526;28;20080;-80
2022/02/27 14:34:05;;;;;;;8.23;4.97;;;;;;;;;;5044031;28;20083;-81
2022/02/27 14:36:32;;;;;;;8.07;4.72;;;;;;;;;;5049698;28;20036;-82
2022/02/27 14:38:59;;;;;;;11.65;5.30;;;;;;;;;;5084767;28;20068;-80
2022/02/27 14:41:27;;;;;;;10.60;5.72;;;;;;;;;;5084370;28;20098;-81
2022/02/27 14:43:55;;;;;;;8.05;5.25;;;;;;;;;;5061849;28;20079;-81
2022/02/27 14:46:22;;;;;;;7.38;4.82;;;;;;;;;;5042600;28;20056;-81
2022/02/27 14:48:50;;;;;;;6.93;4.75;;;;;;;;;;5058319;28;20065;-82
2022/02/27 14:51:17;;;;;;;11.70;6.10;;;;;;;;;;5039423;28;20060;-82
2022/02/27 14:53:44;;;;;;;7.28;4.45;;;;;;;;;;5064432;28;20052;-83
2022/02/27 14:56:12;;;;;;;8.75;5.22;;;;;;;;;;5052406;28;20049;-81
2022/02/27 14:58:38;;;;;;;9.05;5.07;;;;;;;;;;5069658;28;20052;-81